sensor_id;sensor_type;location;lat;lon;timestamp;P1;durP1;ratioP1;P2;durP2;ratioP2
63693;SDS011;49839;51.798;10.954;2024-01-16T00:00:35;2.05;;;0.52;;
63693;SDS011;49839;51.798;10.954;2024-01-16T00:03:03;2.67;;;0.52;;
63693;SDS011;49839;51.798;10.954;2024-01-16T00:05:32;2.20;;;0.70;;
63693;SDS011;49839;51.798;10.954;2024-01-16T00:07:59;4.45;;;0.77;;
63693;SDS011;49839;51.798;10.954;2024-01-16T00:10:27;2.40;;;0.85;;
63693;SDS011;49839;51.798;10.954;2024-01-16T00:12:54;3.35;;;0.60;;
63693;SDS011;49839;51.798;10.954;2024-01-16T00:15:21;2.88;;;0.65;;
63693;SDS011;49839;51.798;10.954;2024-01-16T00:17:49;1.70;;;0.50;;
63693;SDS011;49839;51.798;10.954;2024-01-16T00:20:17;0.60;;;0.40;;
63693;SDS011;49839;51.798;10.954;2024-01-16T00:22:46;5.10;;;0.40;;
63693;SDS011;49839;51.798;10.954;2024-01-16T00:25:14;2.08;;;0.60;;
63693;SDS011;49839;51.798;10.954;2024-01-16T00:27:41;2.67;;;0.45;;
63693;SDS011;49839;51.798;10.954;2024-01-16T00:30:09;3.10;;;0.57;;
63693;SDS011;49839;51.798;10.954;2024-01-16T00:32:37;2.38;;;0.70;;
63693;SDS011;49839;51.798;10.954;2024-01-16T00:35:06;2.13;;;0.50;;
63693;SDS011;49839;51.798;10.954;2024-01-16T00:37:34;1.65;;;0.45;;
63693;SDS011;49839;51.798;10.954;2024-01-16T00:40:03;2.22;;;0.50;;
63693;SDS011;49839;51.798;10.954;2024-01-16T00:42:31;3.42;;;0.50;;
63693;SDS011;49839;51.798;10.954;2024-01-16T00:44:59;2.33;;;0.73;;
63693;SDS011;49839;51.798;10.954;2024-01-16T00:47:26;1.60;;;0.35;;
63693;SDS011;49839;51.798;10.954;2024-01-16T00:49:54;1.50;;;0.32;;
63693;SDS011;49839;51.798;10.954;2024-01-16T00:52:21;3.78;;;0.45;;
63693;SDS011;49839;51.798;10.954;2024-01-16T00:54:48;2.10;;;0.40;;
63693;SDS011;49839;51.798;10.954;2024-01-16T00:57:17;2.25;;;0.40;;
63693;SDS011;49839;51.798;10.954;2024-01-16T00:59:45;1.90;;;0.60;;
63693;SDS011;49839;51.798;10.954;2024-01-16T01:02:14;2.88;;;0.40;;
63693;SDS011;49839;51.798;10.954;2024-01-16T01:04:42;1.92;;;0.45;;
63693;SDS011;49839;51.798;10.954;2024-01-16T01:07:12;1.40;;;0.52;;
63693;SDS011;49839;51.798;10.954;2024-01-16T01:09:40;0.77;;;0.15;;
63693;SDS011;49839;51.798;10.954;2024-01-16T01:12:07;2.83;;;0.60;;
63693;SDS011;49839;51.798;10.954;2024-01-16T01:14:36;1.92;;;0.30;;
63693;SDS011;49839;51.798;10.954;2024-01-16T01:17:04;2.10;;;0.27;;
63693;SDS011;49839;51.798;10.954;2024-01-16T01:19:31;1.88;;;0.40;;
63693;SDS011;49839;51.798;10.954;2024-01-16T01:21:59;2.88;;;0.40;;
63693;SDS011;49839;51.798;10.954;2024-01-16T01:24:26;6.65;;;0.47;;
63693;SDS011;49839;51.798;10.954;2024-01-16T01:26:54;2.17;;;0.30;;
63693;SDS011;49839;51.798;10.954;2024-01-16T01:29:21;0.88;;;0.47;;
63693;SDS011;49839;51.798;10.954;2024-01-16T01:31:50;3.55;;;0.30;;
63693;SDS011;49839;51.798;10.954;2024-01-16T01:34:17;2.20;;;0.35;;
63693;SDS011;49839;51.798;10.954;2024-01-16T01:36:45;0.95;;;0.40;;
63693;SDS011;49839;51.798;10.954;2024-01-16T01:39:13;3.45;;;0.40;;
63693;SDS011;49839;51.798;10.954;2024-01-16T01:41:41;2.40;;;0.43;;
63693;SDS011;49839;51.798;10.954;2024-01-16T01:44:09;2.75;;;0.50;;
63693;SDS011;49839;51.798;10.954;2024-01-16T01:46:42;0.55;;;0.20;;
63693;SDS011;49839;51.798;10.954;2024-01-16T01:49:12;1.92;;;0.50;;
63693;SDS011;49839;51.798;10.954;2024-01-16T01:51:40;2.53;;;0.47;;
63693;SDS011;49839;51.798;10.954;2024-01-16T01:54:09;1.00;;;0.35;;
63693;SDS011;49839;51.798;10.954;2024-01-16T01:56:37;2.03;;;0.20;;
63693;SDS011;49839;51.798;10.954;2024-01-16T01:59:05;0.50;;;0.20;;
63693;SDS011;49839;51.798;10.954;2024-01-16T02:01:32;1.75;;;0.30;;
63693;SDS011;49839;51.798;10.954;2024-01-16T02:04:01;2.47;;;0.40;;
63693;SDS011;49839;51.798;10.954;2024-01-16T02:06:30;1.75;;;0.35;;
63693;SDS011;49839;51.798;10.954;2024-01-16T02:08:57;0.45;;;0.20;;
63693;SDS011;49839;51.798;10.954;2024-01-16T02:11:25;3.05;;;0.20;;
63693;SDS011;49839;51.798;10.954;2024-01-16T02:13:53;1.75;;;0.52;;
63693;SDS011;49839;51.798;10.954;2024-01-16T02:16:20;1.50;;;0.38;;
63693;SDS011;49839;51.798;10.954;2024-01-16T02:18:48;7.80;;;0.75;;
63693;SDS011;49839;51.798;10.954;2024-01-16T02:21:17;1.52;;;0.15;;
63693;SDS011;49839;51.798;10.954;2024-01-16T02:23:47;1.45;;;0.32;;
63693;SDS011;49839;51.798;10.954;2024-01-16T02:26:14;1.75;;;0.30;;
63693;SDS011;49839;51.798;10.954;2024-01-16T02:28:42;5.10;;;0.40;;
63693;SDS011;49839;51.798;10.954;2024-01-16T02:31:09;2.20;;;0.38;;
63693;SDS011;49839;51.798;10.954;2024-01-16T02:33:37;2.42;;;0.50;;
63693;SDS011;49839;51.798;10.954;2024-01-16T02:36:05;1.77;;;0.40;;
63693;SDS011;49839;51.798;10.954;2024-01-16T02:38:32;1.63;;;0.38;;
63693;SDS011;49839;51.798;10.954;2024-01-16T02:41:01;0.75;;;0.30;;
63693;SDS011;49839;51.798;10.954;2024-01-16T02:43:29;3.08;;;0.50;;
63693;SDS011;49839;51.798;10.954;2024-01-16T02:45:56;1.52;;;0.40;;
63693;SDS011;49839;51.798;10.954;2024-01-16T02:48:24;2.85;;;0.60;;
63693;SDS011;49839;51.798;10.954;2024-01-16T02:50:52;3.13;;;0.50;;
63693;SDS011;49839;51.798;10.954;2024-01-16T02:53:19;6.65;;;0.70;;
63693;SDS011;49839;51.798;10.954;2024-01-16T02:55:47;4.82;;;0.63;;
63693;SDS011;49839;51.798;10.954;2024-01-16T02:58:15;5.43;;;0.40;;
63693;SDS011;49839;51.798;10.954;2024-01-16T03:00:43;5.65;;;0.40;;
63693;SDS011;49839;51.798;10.954;2024-01-16T03:03:10;1.65;;;0.30;;
63693;SDS011;49839;51.798;10.954;2024-01-16T03:05:38;3.10;;;0.57;;
63693;SDS011;49839;51.798;10.954;2024-01-16T03:08:06;3.92;;;0.43;;
63693;SDS011;49839;51.798;10.954;2024-01-16T03:10:34;0.88;;;0.35;;
63693;SDS011;49839;51.798;10.954;2024-01-16T03:13:01;3.53;;;0.50;;
63693;SDS011;49839;51.798;10.954;2024-01-16T03:15:30;4.43;;;0.70;;
63693;SDS011;49839;51.798;10.954;2024-01-16T03:17:58;3.47;;;0.50;;
63693;SDS011;49839;51.798;10.954;2024-01-16T03:20:26;1.30;;;0.30;;
63693;SDS011;49839;51.798;10.954;2024-01-16T03:22:53;3.28;;;0.60;;
63693;SDS011;49839;51.798;10.954;2024-01-16T03:25:21;2.53;;;0.47;;
63693;SDS011;49839;51.798;10.954;2024-01-16T03:27:48;2.42;;;0.63;;
63693;SDS011;49839;51.798;10.954;2024-01-16T03:30:16;3.08;;;0.65;;
63693;SDS011;49839;51.798;10.954;2024-01-16T03:32:45;5.78;;;0.98;;
63693;SDS011;49839;51.798;10.954;2024-01-16T03:35:12;1.85;;;0.50;;
63693;SDS011;49839;51.798;10.954;2024-01-16T03:37:39;3.92;;;0.50;;
63693;SDS011;49839;51.798;10.954;2024-01-16T03:40:07;5.57;;;0.80;;
63693;SDS011;49839;51.798;10.954;2024-01-16T03:42:35;3.65;;;0.77;;
63693;SDS011;49839;51.798;10.954;2024-01-16T03:45:03;2.38;;;0.57;;
63693;SDS011;49839;51.798;10.954;2024-01-16T03:47:30;3.17;;;0.63;;
63693;SDS011;49839;51.798;10.954;2024-01-16T03:49:59;3.45;;;0.80;;
63693;SDS011;49839;51.798;10.954;2024-01-16T03:52:26;2.88;;;0.55;;
63693;SDS011;49839;51.798;10.954;2024-01-16T03:54:54;4.97;;;0.50;;
63693;SDS011;49839;51.798;10.954;2024-01-16T03:57:21;2.55;;;0.75;;
63693;SDS011;49839;51.798;10.954;2024-01-16T03:59:50;3.17;;;0.60;;
63693;SDS011;49839;51.798;10.954;2024-01-16T04:02:17;1.98;;;0.30;;
63693;SDS011;49839;51.798;10.954;2024-01-16T04:04:45;2.50;;;0.50;;
63693;SDS011;49839;51.798;10.954;2024-01-16T04:07:14;1.88;;;0.30;;
63693;SDS011;49839;51.798;10.954;2024-01-16T04:09:41;1.08;;;0.38;;
63693;SDS011;49839;51.798;10.954;2024-01-16T04:12:09;1.17;;;0.30;;
63693;SDS011;49839;51.798;10.954;2024-01-16T04:14:37;4.70;;;0.35;;
63693;SDS011;49839;51.798;10.954;2024-01-16T04:17:05;3.92;;;0.40;;
63693;SDS011;49839;51.798;10.954;2024-01-16T04:19:32;1.08;;;0.38;;
63693;SDS011;49839;51.798;10.954;2024-01-16T04:22:00;1.45;;;0.60;;
63693;SDS011;49839;51.798;10.954;2024-01-16T04:24:29;3.15;;;0.20;;
63693;SDS011;49839;51.798;10.954;2024-01-16T04:26:57;3.33;;;0.60;;
63693;SDS011;49839;51.798;10.954;2024-01-16T04:29:24;3.33;;;1.02;;
63693;SDS011;49839;51.798;10.954;2024-01-16T04:31:51;1.60;;;0.60;;
63693;SDS011;49839;51.798;10.954;2024-01-16T04:34:19;1.48;;;0.40;;
63693;SDS011;49839;51.798;10.954;2024-01-16T04:36:47;3.22;;;0.60;;
63693;SDS011;49839;51.798;10.954;2024-01-16T04:39:14;4.43;;;0.90;;
63693;SDS011;49839;51.798;10.954;2024-01-16T04:41:43;4.45;;;0.60;;
63693;SDS011;49839;51.798;10.954;2024-01-16T04:44:10;3.60;;;0.73;;
63693;SDS011;49839;51.798;10.954;2024-01-16T04:46:38;6.85;;;0.70;;
63693;SDS011;49839;51.798;10.954;2024-01-16T04:49:05;4.35;;;0.65;;
63693;SDS011;49839;51.798;10.954;2024-01-16T04:51:32;5.88;;;0.70;;
63693;SDS011;49839;51.798;10.954;2024-01-16T04:54:00;1.45;;;0.47;;
63693;SDS011;49839;51.798;10.954;2024-01-16T04:56:27;7.57;;;1.05;;
63693;SDS011;49839;51.798;10.954;2024-01-16T04:58:57;5.78;;;1.27;;
63693;SDS011;49839;51.798;10.954;2024-01-16T05:01:24;4.70;;;0.67;;
63693;SDS011;49839;51.798;10.954;2024-01-16T05:03:52;3.58;;;0.80;;
63693;SDS011;49839;51.798;10.954;2024-01-16T05:06:19;3.67;;;0.75;;
63693;SDS011;49839;51.798;10.954;2024-01-16T05:08:47;2.80;;;0.52;;
63693;SDS011;49839;51.798;10.954;2024-01-16T05:11:15;8.90;;;2.33;;
63693;SDS011;49839;51.798;10.954;2024-01-16T05:13:43;2.15;;;0.80;;
63693;SDS011;49839;51.798;10.954;2024-01-16T05:16:12;7.07;;;1.85;;
63693;SDS011;49839;51.798;10.954;2024-01-16T05:18:41;3.20;;;1.25;;
63693;SDS011;49839;51.798;10.954;2024-01-16T05:21:08;2.73;;;1.17;;
63693;SDS011;49839;51.798;10.954;2024-01-16T05:23:36;6.55;;;2.08;;
63693;SDS011;49839;51.798;10.954;2024-01-16T05:26:03;6.90;;;1.30;;
63693;SDS011;49839;51.798;10.954;2024-01-16T05:28:31;6.55;;;1.48;;
63693;SDS011;49839;51.798;10.954;2024-01-16T05:30:59;4.50;;;1.10;;
63693;SDS011;49839;51.798;10.954;2024-01-16T05:33:28;5.30;;;1.27;;
63693;SDS011;49839;51.798;10.954;2024-01-16T05:35:56;4.95;;;1.60;;
63693;SDS011;49839;51.798;10.954;2024-01-16T05:38:24;8.50;;;3.08;;
63693;SDS011;49839;51.798;10.954;2024-01-16T05:40:52;8.93;;;2.00;;
63693;SDS011;49839;51.798;10.954;2024-01-16T05:43:19;5.72;;;0.63;;
63693;SDS011;49839;51.798;10.954;2024-01-16T05:45:46;8.45;;;1.13;;
63693;SDS011;49839;51.798;10.954;2024-01-16T05:48:14;3.53;;;0.85;;
63693;SDS011;49839;51.798;10.954;2024-01-16T05:50:43;2.17;;;0.80;;
63693;SDS011;49839;51.798;10.954;2024-01-16T05:53:12;3.10;;;0.82;;
63693;SDS011;49839;51.798;10.954;2024-01-16T05:55:40;6.38;;;0.93;;
63693;SDS011;49839;51.798;10.954;2024-01-16T05:58:07;4.72;;;0.75;;
63693;SDS011;49839;51.798;10.954;2024-01-16T06:00:38;4.50;;;0.73;;
63693;SDS011;49839;51.798;10.954;2024-01-16T06:03:06;6.90;;;1.10;;
63693;SDS011;49839;51.798;10.954;2024-01-16T06:05:34;5.85;;;1.00;;
63693;SDS011;49839;51.798;10.954;2024-01-16T06:08:02;8.48;;;2.63;;
63693;SDS011;49839;51.798;10.954;2024-01-16T06:10:30;3.42;;;1.08;;
63693;SDS011;49839;51.798;10.954;2024-01-16T06:12:57;3.97;;;1.05;;
63693;SDS011;49839;51.798;10.954;2024-01-16T06:15:25;4.43;;;1.40;;
63693;SDS011;49839;51.798;10.954;2024-01-16T06:17:52;5.35;;;1.00;;
63693;SDS011;49839;51.798;10.954;2024-01-16T06:20:20;4.25;;;1.42;;
63693;SDS011;49839;51.798;10.954;2024-01-16T06:22:50;7.43;;;1.42;;
63693;SDS011;49839;51.798;10.954;2024-01-16T06:25:19;5.25;;;1.00;;
63693;SDS011;49839;51.798;10.954;2024-01-16T06:27:46;6.05;;;1.88;;
63693;SDS011;49839;51.798;10.954;2024-01-16T06:30:13;3.75;;;0.77;;
63693;SDS011;49839;51.798;10.954;2024-01-16T06:32:41;6.07;;;1.38;;
63693;SDS011;49839;51.798;10.954;2024-01-16T06:35:09;6.13;;;1.60;;
63693;SDS011;49839;51.798;10.954;2024-01-16T06:37:36;3.33;;;1.05;;
63693;SDS011;49839;51.798;10.954;2024-01-16T06:40:04;6.20;;;1.20;;
63693;SDS011;49839;51.798;10.954;2024-01-16T06:42:33;9.07;;;0.93;;
63693;SDS011;49839;51.798;10.954;2024-01-16T06:45:02;6.20;;;1.10;;
63693;SDS011;49839;51.798;10.954;2024-01-16T06:47:29;4.75;;;1.02;;
63693;SDS011;49839;51.798;10.954;2024-01-16T06:49:57;7.90;;;1.60;;
63693;SDS011;49839;51.798;10.954;2024-01-16T06:52:24;3.80;;;0.98;;
63693;SDS011;49839;51.798;10.954;2024-01-16T06:54:52;5.63;;;1.30;;
63693;SDS011;49839;51.798;10.954;2024-01-16T06:57:19;8.05;;;1.60;;
63693;SDS011;49839;51.798;10.954;2024-01-16T06:59:48;6.30;;;1.60;;
63693;SDS011;49839;51.798;10.954;2024-01-16T07:02:15;6.97;;;1.88;;
63693;SDS011;49839;51.798;10.954;2024-01-16T07:04:43;7.30;;;1.90;;
63693;SDS011;49839;51.798;10.954;2024-01-16T07:07:10;6.50;;;2.15;;
63693;SDS011;49839;51.798;10.954;2024-01-16T07:09:38;6.70;;;1.83;;
63693;SDS011;49839;51.798;10.954;2024-01-16T07:12:06;8.75;;;1.50;;
63693;SDS011;49839;51.798;10.954;2024-01-16T07:14:33;5.30;;;1.60;;
63693;SDS011;49839;51.798;10.954;2024-01-16T07:17:02;5.55;;;1.08;;
63693;SDS011;49839;51.798;10.954;2024-01-16T07:19:29;7.27;;;1.10;;
63693;SDS011;49839;51.798;10.954;2024-01-16T07:21:57;2.92;;;0.85;;
63693;SDS011;49839;51.798;10.954;2024-01-16T07:24:24;1.95;;;0.88;;
63693;SDS011;49839;51.798;10.954;2024-01-16T07:26:52;5.35;;;1.55;;
63693;SDS011;49839;51.798;10.954;2024-01-16T07:29:20;3.67;;;1.30;;
63693;SDS011;49839;51.798;10.954;2024-01-16T07:31:48;6.10;;;1.25;;
63693;SDS011;49839;51.798;10.954;2024-01-16T07:34:16;2.00;;;0.75;;
63693;SDS011;49839;51.798;10.954;2024-01-16T07:36:48;3.15;;;0.93;;
63693;SDS011;49839;51.798;10.954;2024-01-16T07:39:15;4.65;;;1.20;;
63693;SDS011;49839;51.798;10.954;2024-01-16T07:41:43;4.57;;;1.30;;
63693;SDS011;49839;51.798;10.954;2024-01-16T07:44:10;1.45;;;0.70;;
63693;SDS011;49839;51.798;10.954;2024-01-16T07:46:37;4.25;;;1.60;;
63693;SDS011;49839;51.798;10.954;2024-01-16T07:49:05;6.03;;;1.50;;
63693;SDS011;49839;51.798;10.954;2024-01-16T07:51:34;5.20;;;1.15;;
63693;SDS011;49839;51.798;10.954;2024-01-16T07:54:05;5.85;;;1.40;;
63693;SDS011;49839;51.798;10.954;2024-01-16T07:56:33;6.32;;;1.30;;
63693;SDS011;49839;51.798;10.954;2024-01-16T07:59:00;4.05;;;1.27;;
63693;SDS011;49839;51.798;10.954;2024-01-16T08:01:28;4.07;;;1.17;;
63693;SDS011;49839;51.798;10.954;2024-01-16T08:03:56;2.83;;;1.00;;
63693;SDS011;49839;51.798;10.954;2024-01-16T08:06:23;7.00;;;1.23;;
63693;SDS011;49839;51.798;10.954;2024-01-16T08:08:52;5.47;;;1.30;;
63693;SDS011;49839;51.798;10.954;2024-01-16T08:11:20;2.17;;;0.95;;
63693;SDS011;49839;51.798;10.954;2024-01-16T08:13:47;3.80;;;1.13;;
63693;SDS011;49839;51.798;10.954;2024-01-16T08:16:15;4.57;;;1.50;;
63693;SDS011;49839;51.798;10.954;2024-01-16T08:18:42;5.15;;;1.42;;
63693;SDS011;49839;51.798;10.954;2024-01-16T08:21:10;8.98;;;1.33;;
63693;SDS011;49839;51.798;10.954;2024-01-16T08:23:37;6.20;;;1.35;;
63693;SDS011;49839;51.798;10.954;2024-01-16T08:26:06;4.38;;;1.70;;
63693;SDS011;49839;51.798;10.954;2024-01-16T08:28:34;3.63;;;0.98;;
63693;SDS011;49839;51.798;10.954;2024-01-16T08:31:02;6.75;;;1.17;;
63693;SDS011;49839;51.798;10.954;2024-01-16T08:33:29;8.98;;;1.55;;
63693;SDS011;49839;51.798;10.954;2024-01-16T08:36:08;5.13;;;0.90;;
63693;SDS011;49839;51.798;10.954;2024-01-16T08:38:36;5.82;;;1.10;;
63693;SDS011;49839;51.798;10.954;2024-01-16T08:41:03;6.88;;;1.30;;
63693;SDS011;49839;51.798;10.954;2024-01-16T08:43:34;7.68;;;1.50;;
63693;SDS011;49839;51.798;10.954;2024-01-16T08:46:01;4.68;;;1.10;;
63693;SDS011;49839;51.798;10.954;2024-01-16T08:48:29;8.23;;;1.25;;
63693;SDS011;49839;51.798;10.954;2024-01-16T08:50:57;4.35;;;1.67;;
63693;SDS011;49839;51.798;10.954;2024-01-16T08:53:26;3.20;;;1.30;;
63693;SDS011;49839;51.798;10.954;2024-01-16T08:55:54;3.45;;;1.20;;
63693;SDS011;49839;51.798;10.954;2024-01-16T08:58:21;3.08;;;0.77;;
63693;SDS011;49839;51.798;10.954;2024-01-16T09:00:50;3.97;;;1.10;;
63693;SDS011;49839;51.798;10.954;2024-01-16T09:03:17;4.28;;;0.80;;
63693;SDS011;49839;51.798;10.954;2024-01-16T09:05:45;4.45;;;0.70;;
63693;SDS011;49839;51.798;10.954;2024-01-16T09:08:13;4.15;;;1.02;;
63693;SDS011;49839;51.798;10.954;2024-01-16T09:10:40;3.72;;;0.75;;
63693;SDS011;49839;51.798;10.954;2024-01-16T09:13:08;4.63;;;1.80;;
63693;SDS011;49839;51.798;10.954;2024-01-16T09:15:35;7.43;;;1.90;;
63693;SDS011;49839;51.798;10.954;2024-01-16T09:18:05;5.50;;;1.70;;
63693;SDS011;49839;51.798;10.954;2024-01-16T09:20:33;7.32;;;1.92;;
63693;SDS011;49839;51.798;10.954;2024-01-16T09:23:01;6.65;;;2.00;;
63693;SDS011;49839;51.798;10.954;2024-01-16T09:25:28;6.10;;;2.08;;
63693;SDS011;49839;51.798;10.954;2024-01-16T09:27:56;8.27;;;2.65;;
63693;SDS011;49839;51.798;10.954;2024-01-16T09:30:23;6.30;;;2.10;;
63693;SDS011;49839;51.798;10.954;2024-01-16T09:32:51;5.38;;;2.33;;
63693;SDS011;49839;51.798;10.954;2024-01-16T09:35:20;5.05;;;2.25;;
63693;SDS011;49839;51.798;10.954;2024-01-16T09:37:48;4.70;;;1.92;;
63693;SDS011;49839;51.798;10.954;2024-01-16T09:40:15;5.55;;;1.98;;
63693;SDS011;49839;51.798;10.954;2024-01-16T09:42:43;5.57;;;2.00;;
63693;SDS011;49839;51.798;10.954;2024-01-16T09:45:11;5.40;;;1.55;;
63693;SDS011;49839;51.798;10.954;2024-01-16T09:47:40;7.53;;;2.20;;
63693;SDS011;49839;51.798;10.954;2024-01-16T09:50:09;4.50;;;1.73;;
63693;SDS011;49839;51.798;10.954;2024-01-16T09:52:38;3.47;;;1.30;;
63693;SDS011;49839;51.798;10.954;2024-01-16T09:55:06;11.55;;;2.72;;
63693;SDS011;49839;51.798;10.954;2024-01-16T09:57:33;7.82;;;2.40;;
63693;SDS011;49839;51.798;10.954;2024-01-16T10:00:02;5.20;;;1.73;;
63693;SDS011;49839;51.798;10.954;2024-01-16T10:02:31;6.82;;;2.25;;
63693;SDS011;49839;51.798;10.954;2024-01-16T10:04:59;7.80;;;2.40;;
63693;SDS011;49839;51.798;10.954;2024-01-16T10:07:27;6.07;;;1.73;;
63693;SDS011;49839;51.798;10.954;2024-01-16T10:09:57;7.07;;;2.05;;
63693;SDS011;49839;51.798;10.954;2024-01-16T10:12:24;4.97;;;2.05;;
63693;SDS011;49839;51.798;10.954;2024-01-16T10:14:52;4.72;;;1.75;;
63693;SDS011;49839;51.798;10.954;2024-01-16T10:17:23;4.13;;;1.80;;
63693;SDS011;49839;51.798;10.954;2024-01-16T10:20:02;4.75;;;1.80;;
63693;SDS011;49839;51.798;10.954;2024-01-16T10:22:31;7.35;;;2.15;;
63693;SDS011;49839;51.798;10.954;2024-01-16T10:25:06;5.22;;;1.98;;
63693;SDS011;49839;51.798;10.954;2024-01-16T10:27:35;6.97;;;2.17;;
63693;SDS011;49839;51.798;10.954;2024-01-16T10:30:03;6.10;;;2.08;;
63693;SDS011;49839;51.798;10.954;2024-01-16T10:32:33;6.85;;;1.95;;
63693;SDS011;49839;51.798;10.954;2024-01-16T10:35:05;5.05;;;2.10;;
63693;SDS011;49839;51.798;10.954;2024-01-16T10:37:43;10.35;;;2.22;;
63693;SDS011;49839;51.798;10.954;2024-01-16T10:40:15;7.47;;;2.10;;
63693;SDS011;49839;51.798;10.954;2024-01-16T10:42:42;5.93;;;1.95;;
63693;SDS011;49839;51.798;10.954;2024-01-16T10:45:11;5.97;;;2.20;;
63693;SDS011;49839;51.798;10.954;2024-01-16T10:47:43;5.68;;;2.15;;
63693;SDS011;49839;51.798;10.954;2024-01-16T10:50:10;5.35;;;1.92;;
63693;SDS011;49839;51.798;10.954;2024-01-16T10:52:41;7.38;;;2.15;;
63693;SDS011;49839;51.798;10.954;2024-01-16T10:55:11;4.82;;;1.95;;
63693;SDS011;49839;51.798;10.954;2024-01-16T10:57:42;20.27;;;8.77;;
63693;SDS011;49839;51.798;10.954;2024-01-16T11:00:10;12.90;;;5.40;;
63693;SDS011;49839;51.798;10.954;2024-01-16T11:02:42;58.80;;;29.70;;
63693;SDS011;49839;51.798;10.954;2024-01-16T11:05:11;89.07;;;43.17;;
63693;SDS011;49839;51.798;10.954;2024-01-16T11:07:39;36.67;;;18.23;;
63693;SDS011;49839;51.798;10.954;2024-01-16T11:10:08;9.52;;;3.55;;
63693;SDS011;49839;51.798;10.954;2024-01-16T11:12:37;7.32;;;2.65;;
63693;SDS011;49839;51.798;10.954;2024-01-16T11:15:07;6.82;;;2.53;;
63693;SDS011;49839;51.798;10.954;2024-01-16T11:17:35;13.63;;;6.55;;
63693;SDS011;49839;51.798;10.954;2024-01-16T11:20:04;8.07;;;2.40;;
63693;SDS011;49839;51.798;10.954;2024-01-16T11:22:52;12.27;;;7.28;;
63693;SDS011;49839;51.798;10.954;2024-01-16T11:25:30;11.82;;;6.43;;
63693;SDS011;49839;51.798;10.954;2024-01-16T11:28:07;8.63;;;2.35;;
63693;SDS011;49839;51.798;10.954;2024-01-16T11:30:36;5.28;;;2.22;;
63693;SDS011;49839;51.798;10.954;2024-01-16T11:33:03;7.70;;;2.55;;
63693;SDS011;49839;51.798;10.954;2024-01-16T11:35:32;11.00;;;6.53;;
63693;SDS011;49839;51.798;10.954;2024-01-16T11:38:03;8.45;;;3.38;;
63693;SDS011;49839;51.798;10.954;2024-01-16T11:40:34;11.85;;;3.70;;
63693;SDS011;49839;51.798;10.954;2024-01-16T11:45:49;6.03;;;2.88;;
63693;SDS011;49839;51.798;10.954;2024-01-16T11:48:17;7.85;;;2.70;;
63693;SDS011;49839;51.798;10.954;2024-01-16T11:50:46;8.30;;;3.38;;
63693;SDS011;49839;51.798;10.954;2024-01-16T11:55:58;8.00;;;3.33;;
63693;SDS011;49839;51.798;10.954;2024-01-16T11:58:34;8.23;;;3.25;;
63693;SDS011;49839;51.798;10.954;2024-01-16T12:01:05;9.35;;;3.25;;
63693;SDS011;49839;51.798;10.954;2024-01-16T12:03:33;6.57;;;2.83;;
63693;SDS011;49839;51.798;10.954;2024-01-16T12:06:01;8.15;;;3.15;;
63693;SDS011;49839;51.798;10.954;2024-01-16T12:08:32;5.25;;;2.65;;
63693;SDS011;49839;51.798;10.954;2024-01-16T12:11:00;5.22;;;2.38;;
63693;SDS011;49839;51.798;10.954;2024-01-16T12:13:27;10.32;;;3.25;;
63693;SDS011;49839;51.798;10.954;2024-01-16T12:16:01;6.05;;;2.20;;
63693;SDS011;49839;51.798;10.954;2024-01-16T12:18:31;5.53;;;2.30;;
63693;SDS011;49839;51.798;10.954;2024-01-16T12:21:09;5.28;;;2.25;;
63693;SDS011;49839;51.798;10.954;2024-01-16T12:23:38;5.75;;;2.38;;
63693;SDS011;49839;51.798;10.954;2024-01-16T12:26:19;5.40;;;2.00;;
63693;SDS011;49839;51.798;10.954;2024-01-16T12:28:49;5.50;;;2.03;;
63693;SDS011;49839;51.798;10.954;2024-01-16T12:31:17;16.10;;;6.43;;
63693;SDS011;49839;51.798;10.954;2024-01-16T12:33:46;7.68;;;3.42;;
63693;SDS011;49839;51.798;10.954;2024-01-16T12:36:26;11.88;;;4.20;;
63693;SDS011;49839;51.798;10.954;2024-01-16T12:38:54;9.70;;;3.10;;
63693;SDS011;49839;51.798;10.954;2024-01-16T12:41:22;4.88;;;2.47;;
63693;SDS011;49839;51.798;10.954;2024-01-16T12:44:04;8.18;;;2.75;;
63693;SDS011;49839;51.798;10.954;2024-01-16T12:46:41;8.50;;;3.55;;
63693;SDS011;49839;51.798;10.954;2024-01-16T12:49:10;7.65;;;2.50;;
63693;SDS011;49839;51.798;10.954;2024-01-16T12:51:38;6.05;;;3.05;;
63693;SDS011;49839;51.798;10.954;2024-01-16T12:54:12;7.60;;;2.40;;
63693;SDS011;49839;51.798;10.954;2024-01-16T12:56:41;7.95;;;2.40;;
63693;SDS011;49839;51.798;10.954;2024-01-16T12:59:09;6.57;;;2.63;;
63693;SDS011;49839;51.798;10.954;2024-01-16T13:01:39;3.92;;;1.70;;
63693;SDS011;49839;51.798;10.954;2024-01-16T13:04:08;4.07;;;2.00;;
63693;SDS011;49839;51.798;10.954;2024-01-16T13:06:36;6.35;;;2.50;;
63693;SDS011;49839;51.798;10.954;2024-01-16T13:09:05;7.32;;;2.80;;
63693;SDS011;49839;51.798;10.954;2024-01-16T13:11:46;5.82;;;2.28;;
63693;SDS011;49839;51.798;10.954;2024-01-16T13:14:13;8.93;;;3.60;;
63693;SDS011;49839;51.798;10.954;2024-01-16T13:16:41;8.38;;;3.15;;
63693;SDS011;49839;51.798;10.954;2024-01-16T13:19:08;7.07;;;2.58;;
63693;SDS011;49839;51.798;10.954;2024-01-16T13:21:38;5.80;;;2.60;;
63693;SDS011;49839;51.798;10.954;2024-01-16T13:24:06;6.22;;;2.45;;
63693;SDS011;49839;51.798;10.954;2024-01-16T13:26:34;5.43;;;2.47;;
63693;SDS011;49839;51.798;10.954;2024-01-16T13:29:03;6.38;;;2.47;;
63693;SDS011;49839;51.798;10.954;2024-01-16T13:31:32;7.53;;;2.77;;
63693;SDS011;49839;51.798;10.954;2024-01-16T13:33:59;9.07;;;2.80;;
63693;SDS011;49839;51.798;10.954;2024-01-16T13:36:27;6.35;;;2.35;;
63693;SDS011;49839;51.798;10.954;2024-01-16T13:39:16;6.03;;;2.72;;
63693;SDS011;49839;51.798;10.954;2024-01-16T13:41:43;6.82;;;2.53;;
63693;SDS011;49839;51.798;10.954;2024-01-16T13:44:10;4.63;;;1.60;;
63693;SDS011;49839;51.798;10.954;2024-01-16T13:46:38;7.20;;;2.15;;
63693;SDS011;49839;51.798;10.954;2024-01-16T13:49:26;7.68;;;1.67;;
63693;SDS011;49839;51.798;10.954;2024-01-16T13:51:53;5.50;;;1.88;;
63693;SDS011;49839;51.798;10.954;2024-01-16T13:54:22;7.75;;;2.60;;
63693;SDS011;49839;51.798;10.954;2024-01-16T13:56:50;5.72;;;2.10;;
63693;SDS011;49839;51.798;10.954;2024-01-16T13:59:32;4.85;;;1.25;;
63693;SDS011;49839;51.798;10.954;2024-01-16T14:02:00;8.52;;;3.72;;
63693;SDS011;49839;51.798;10.954;2024-01-16T14:04:28;6.00;;;1.88;;
63693;SDS011;49839;51.798;10.954;2024-01-16T14:06:56;5.80;;;1.90;;
63693;SDS011;49839;51.798;10.954;2024-01-16T14:09:40;4.85;;;1.95;;
63693;SDS011;49839;51.798;10.954;2024-01-16T14:12:10;4.55;;;1.42;;
63693;SDS011;49839;51.798;10.954;2024-01-16T14:14:38;7.05;;;1.90;;
63693;SDS011;49839;51.798;10.954;2024-01-16T14:17:07;7.43;;;1.60;;
63693;SDS011;49839;51.798;10.954;2024-01-16T14:19:34;4.10;;;1.73;;
63693;SDS011;49839;51.798;10.954;2024-01-16T14:22:02;4.22;;;1.33;;
63693;SDS011;49839;51.798;10.954;2024-01-16T14:24:30;5.75;;;1.17;;
63693;SDS011;49839;51.798;10.954;2024-01-16T14:26:58;4.38;;;1.27;;
63693;SDS011;49839;51.798;10.954;2024-01-16T14:29:26;7.15;;;1.92;;
63693;SDS011;49839;51.798;10.954;2024-01-16T14:31:54;6.13;;;1.73;;
63693;SDS011;49839;51.798;10.954;2024-01-16T14:34:23;6.95;;;1.85;;
63693;SDS011;49839;51.798;10.954;2024-01-16T14:36:50;6.88;;;2.05;;
63693;SDS011;49839;51.798;10.954;2024-01-16T14:39:19;10.83;;;2.20;;
63693;SDS011;49839;51.798;10.954;2024-01-16T14:41:52;4.50;;;1.30;;
63693;SDS011;49839;51.798;10.954;2024-01-16T14:44:21;6.47;;;1.90;;
63693;SDS011;49839;51.798;10.954;2024-01-16T14:46:48;10.10;;;1.90;;